sensor_id;sensor_type;location;lat;lon;timestamp;temperature;humidity
18287;DHT22;9269;50.838;12.094;2023-05-07T00:00:14;17.30;42.60
18287;DHT22;9269;50.838;12.094;2023-05-07T00:02:47;17.30;42.30
18287;DHT22;9269;50.838;12.094;2023-05-07T00:05:16;17.30;42.70
18287;DHT22;9269;50.838;12.094;2023-05-07T00:07:49;17.30;42.30
18287;DHT22;9269;50.838;12.094;2023-05-07T00:10:25;17.30;42.50
18287;DHT22;9269;50.838;12.094;2023-05-07T00:13:00;17.20;42.40
18287;DHT22;9269;50.838;12.094;2023-05-07T00:15:48;17.30;42.30
18287;DHT22;9269;50.838;12.094;2023-05-07T00:18:22;17.20;42.10
18287;DHT22;9269;50.838;12.094;2023-05-07T00:20:55;17.20;42.20
18287;DHT22;9269;50.838;12.094;2023-05-07T00:23:32;17.20;42.80
18287;DHT22;9269;50.838;12.094;2023-05-07T00:26:05;17.10;42.50
18287;DHT22;9269;50.838;12.094;2023-05-07T00:28:38;17.20;42.50
18287;DHT22;9269;50.838;12.094;2023-05-07T00:31:16;17.10;42.80
18287;DHT22;9269;50.838;12.094;2023-05-07T00:33:52;17.10;42.50
18287;DHT22;9269;50.838;12.094;2023-05-07T00:36:27;17.10;42.30
18287;DHT22;9269;50.838;12.094;2023-05-07T00:38:59;17.00;42.50
18287;DHT22;9269;50.838;12.094;2023-05-07T00:41:36;17.10;42.50
18287;DHT22;9269;50.838;12.094;2023-05-07T00:44:14;17.10;42.30
18287;DHT22;9269;50.838;12.094;2023-05-07T00:46:50;17.10;42.30
18287;DHT22;9269;50.838;12.094;2023-05-07T00:49:22;17.10;42.00
18287;DHT22;9269;50.838;12.094;2023-05-07T00:51:58;17.10;42.30
18287;DHT22;9269;50.838;12.094;2023-05-07T00:54:29;17.10;42.30
18287;DHT22;9269;50.838;12.094;2023-05-07T00:57:01;17.00;42.20
18287;DHT22;9269;50.838;12.094;2023-05-07T00:59:35;17.00;42.20
18287;DHT22;9269;50.838;12.094;2023-05-07T01:02:13;17.00;42.10
18287;DHT22;9269;50.838;12.094;2023-05-07T01:04:43;17.00;42.00
18287;DHT22;9269;50.838;12.094;2023-05-07T01:07:22;17.00;42.40
18287;DHT22;9269;50.838;12.094;2023-05-07T01:09:58;16.90;42.20
18287;DHT22;9269;50.838;12.094;2023-05-07T01:12:29;17.00;42.20
18287;DHT22;9269;50.838;12.094;2023-05-07T01:15:10;16.90;42.20
18287;DHT22;9269;50.838;12.094;2023-05-07T01:17:45;17.00;42.40
18287;DHT22;9269;50.838;12.094;2023-05-07T01:20:18;16.90;42.60
18287;DHT22;9269;50.838;12.094;2023-05-07T01:22:57;17.00;42.20
18287;DHT22;9269;50.838;12.094;2023-05-07T01:25:32;16.90;42.20
18287;DHT22;9269;50.838;12.094;2023-05-07T01:28:04;16.90;42.10
18287;DHT22;9269;50.838;12.094;2023-05-07T01:30:36;16.90;42.10
18287;DHT22;9269;50.838;12.094;2023-05-07T01:33:11;17.00;42.00
18287;DHT22;9269;50.838;12.094;2023-05-07T01:35:48;16.90;42.20
18287;DHT22;9269;50.838;12.094;2023-05-07T01:38:39;16.90;42.30
18287;DHT22;9269;50.838;12.094;2023-05-07T01:41:11;17.00;42.30
18287;DHT22;9269;50.838;12.094;2023-05-07T01:43:42;16.90;41.90
18287;DHT22;9269;50.838;12.094;2023-05-07T01:46:17;16.80;41.70
18287;DHT22;9269;50.838;12.094;2023-05-07T01:48:54;16.90;41.90
18287;DHT22;9269;50.838;12.094;2023-05-07T01:51:29;17.00;41.70
18287;DHT22;9269;50.838;12.094;2023-05-07T01:54:04;16.90;41.70
18287;DHT22;9269;50.838;12.094;2023-05-07T01:56:36;16.80;41.70
18287;DHT22;9269;50.838;12.094;2023-05-07T01:59:16;16.80;41.40
18287;DHT22;9269;50.838;12.094;2023-05-07T02:01:48;16.80;41.70
18287;DHT22;9269;50.838;12.094;2023-05-07T02:04:21;16.80;41.50
18287;DHT22;9269;50.838;12.094;2023-05-07T02:06:53;16.80;41.90
18287;DHT22;9269;50.838;12.094;2023-05-07T02:09:24;16.80;42.00
18287;DHT22;9269;50.838;12.094;2023-05-07T02:11:59;16.70;41.80
18287;DHT22;9269;50.838;12.094;2023-05-07T02:14:32;16.70;42.10
18287;DHT22;9269;50.838;12.094;2023-05-07T02:17:05;16.70;41.90
18287;DHT22;9269;50.838;12.094;2023-05-07T02:19:53;16.70;41.70
18287;DHT22;9269;50.838;12.094;2023-05-07T02:22:24;16.70;42.10
18287;DHT22;9269;50.838;12.094;2023-05-07T02:25:00;16.70;41.90
18287;DHT22;9269;50.838;12.094;2023-05-07T02:27:34;16.60;42.00
18287;DHT22;9269;50.838;12.094;2023-05-07T02:30:10;16.60;42.10
18287;DHT22;9269;50.838;12.094;2023-05-07T02:32:41;16.60;41.70
18287;DHT22;9269;50.838;12.094;2023-05-07T02:35:17;16.60;42.00
18287;DHT22;9269;50.838;12.094;2023-05-07T02:37:54;16.50;42.50
18287;DHT22;9269;50.838;12.094;2023-05-07T02:40:42;16.60;42.20
18287;DHT22;9269;50.838;12.094;2023-05-07T02:43:11;16.50;42.30
18287;DHT22;9269;50.838;12.094;2023-05-07T02:45:44;16.60;42.40
18287;DHT22;9269;50.838;12.094;2023-05-07T02:48:16;16.50;42.50
18287;DHT22;9269;50.838;12.094;2023-05-07T02:50:48;16.50;42.40
18287;DHT22;9269;50.838;12.094;2023-05-07T02:53:18;16.50;42.70
18287;DHT22;9269;50.838;12.094;2023-05-07T02:55:52;16.50;42.80
18287;DHT22;9269;50.838;12.094;2023-05-07T02:58:21;16.40;42.70
18287;DHT22;9269;50.838;12.094;2023-05-07T03:00:54;16.40;43.00
18287;DHT22;9269;50.838;12.094;2023-05-07T03:03:26;16.40;43.10
18287;DHT22;9269;50.838;12.094;2023-05-07T03:05:59;16.40;43.50
18287;DHT22;9269;50.838;12.094;2023-05-07T03:08:34;16.40;43.70
18287;DHT22;9269;50.838;12.094;2023-05-07T03:11:09;16.30;43.40
18287;DHT22;9269;50.838;12.094;2023-05-07T03:13:40;16.30;43.70
18287;DHT22;9269;50.838;12.094;2023-05-07T03:16:15;16.30;44.00
18287;DHT22;9269;50.838;12.094;2023-05-07T03:18:48;16.30;44.20
18287;DHT22;9269;50.838;12.094;2023-05-07T03:21:24;16.40;44.30
18287;DHT22;9269;50.838;12.094;2023-05-07T03:24:01;16.30;44.20
18287;DHT22;9269;50.838;12.094;2023-05-07T03:26:38;16.30;44.00
18287;DHT22;9269;50.838;12.094;2023-05-07T03:29:14;16.30;43.90
18287;DHT22;9269;50.838;12.094;2023-05-07T03:31:49;16.30;44.10
18287;DHT22;9269;50.838;12.094;2023-05-07T03:34:23;16.20;43.50
18287;DHT22;9269;50.838;12.094;2023-05-07T03:36:56;16.20;44.50
18287;DHT22;9269;50.838;12.094;2023-05-07T03:39:31;16.20;44.40
18287;DHT22;9269;50.838;12.094;2023-05-07T03:42:06;16.20;44.40
18287;DHT22;9269;50.838;12.094;2023-05-07T03:44:40;16.20;44.40
18287;DHT22;9269;50.838;12.094;2023-05-07T03:47:20;16.20;44.00
18287;DHT22;9269;50.838;12.094;2023-05-07T03:49:59;16.30;43.90
18287;DHT22;9269;50.838;12.094;2023-05-07T03:52:33;16.20;44.40
18287;DHT22;9269;50.838;12.094;2023-05-07T03:55:09;16.20;44.50
18287;DHT22;9269;50.838;12.094;2023-05-07T03:57:45;16.10;44.40
18287;DHT22;9269;50.838;12.094;2023-05-07T04:00:18;16.00;44.70
18287;DHT22;9269;50.838;12.094;2023-05-07T04:02:57;16.00;44.20
18287;DHT22;9269;50.838;12.094;2023-05-07T04:05:32;16.10;44.60
18287;DHT22;9269;50.838;12.094;2023-05-07T04:08:04;16.10;44.50
18287;DHT22;9269;50.838;12.094;2023-05-07T04:10:36;16.10;44.80
18287;DHT22;9269;50.838;12.094;2023-05-07T04:13:10;16.00;44.40
18287;DHT22;9269;50.838;12.094;2023-05-07T04:15:42;16.10;44.60
18287;DHT22;9269;50.838;12.094;2023-05-07T04:18:16;16.10;44.40
18287;DHT22;9269;50.838;12.094;2023-05-07T04:20:47;16.00;44.30
18287;DHT22;9269;50.838;12.094;2023-05-07T04:23:20;16.00;44.40
18287;DHT22;9269;50.838;12.094;2023-05-07T04:25:51;15.90;44.90
18287;DHT22;9269;50.838;12.094;2023-05-07T04:28:22;16.00;44.60
18287;DHT22;9269;50.838;12.094;2023-05-07T04:30:55;16.00;44.80
18287;DHT22;9269;50.838;12.094;2023-05-07T04:33:30;15.90;44.40
18287;DHT22;9269;50.838;12.094;2023-05-07T04:36:02;16.00;44.90
18287;DHT22;9269;50.838;12.094;2023-05-07T04:38:40;16.00;44.80
18287;DHT22;9269;50.838;12.094;2023-05-07T04:41:15;15.90;44.80
18287;DHT22;9269;50.838;12.094;2023-05-07T04:43:49;16.00;44.80
18287;DHT22;9269;50.838;12.094;2023-05-07T04:46:25;16.00;44.80
18287;DHT22;9269;50.838;12.094;2023-05-07T04:48:57;15.90;45.00
18287;DHT22;9269;50.838;12.094;2023-05-07T04:51:27;15.90;44.90
18287;DHT22;9269;50.838;12.094;2023-05-07T04:54:15;15.80;45.00
18287;DHT22;9269;50.838;12.094;2023-05-07T04:56:48;15.90;45.20
18287;DHT22;9269;50.838;12.094;2023-05-07T04:59:20;15.90;45.20
18287;DHT22;9269;50.838;12.094;2023-05-07T05:01:50;15.90;45.30
18287;DHT22;9269;50.838;12.094;2023-05-07T05:04:19;15.90;45.00
18287;DHT22;9269;50.838;12.094;2023-05-07T05:06:54;15.80;45.40
18287;DHT22;9269;50.838;12.094;2023-05-07T05:09:28;15.80;45.20
18287;DHT22;9269;50.838;12.094;2023-05-07T05:12:05;15.90;45.70
18287;DHT22;9269;50.838;12.094;2023-05-07T05:14:42;15.90;46.00
18287;DHT22;9269;50.838;12.094;2023-05-07T05:17:15;15.80;45.70
18287;DHT22;9269;50.838;12.094;2023-05-07T05:19:45;15.90;45.50
18287;DHT22;9269;50.838;12.094;2023-05-07T05:22:15;15.90;45.50
18287;DHT22;9269;50.838;12.094;2023-05-07T05:24:46;16.00;45.10
18287;DHT22;9269;50.838;12.094;2023-05-07T05:27:21;16.10;45.30
18287;DHT22;9269;50.838;12.094;2023-05-07T05:29:57;15.90;45.30
18287;DHT22;9269;50.838;12.094;2023-05-07T05:32:32;15.90;45.00
18287;DHT22;9269;50.838;12.094;2023-05-07T05:35:06;16.10;45.00
18287;DHT22;9269;50.838;12.094;2023-05-07T05:37:37;16.10;44.70
18287;DHT22;9269;50.838;12.094;2023-05-07T05:40:12;16.10;44.80
18287;DHT22;9269;50.838;12.094;2023-05-07T05:42:44;16.10;44.90
18287;DHT22;9269;50.838;12.094;2023-05-07T05:45:16;16.00;45.20
18287;DHT22;9269;50.838;12.094;2023-05-07T05:47:49;16.00;44.90
18287;DHT22;9269;50.838;12.094;2023-05-07T05:50:21;16.00;45.10
18287;DHT22;9269;50.838;12.094;2023-05-07T05:52:50;16.00;45.30
18287;DHT22;9269;50.838;12.094;2023-05-07T05:55:20;15.90;45.00
18287;DHT22;9269;50.838;12.094;2023-05-07T05:57:58;16.00;45.40
18287;DHT22;9269;50.838;12.094;2023-05-07T06:00:33;16.00;45.20
18287;DHT22;9269;50.838;12.094;2023-05-07T06:03:05;16.00;44.90
18287;DHT22;9269;50.838;12.094;2023-05-07T06:05:41;16.10;44.80
18287;DHT22;9269;50.838;12.094;2023-05-07T06:08:17;16.10;44.90
18287;DHT22;9269;50.838;12.094;2023-05-07T06:10:53;16.10;44.80
18287;DHT22;9269;50.838;12.094;2023-05-07T06:13:28;16.10;44.70
18287;DHT22;9269;50.838;12.094;2023-05-07T06:15:58;16.10;44.80
18287;DHT22;9269;50.838;12.094;2023-05-07T06:18:31;16.20;44.70
18287;DHT22;9269;50.838;12.094;2023-05-07T06:21:06;16.20;44.60
18287;DHT22;9269;50.838;12.094;2023-05-07T06:23:43;16.10;44.40
18287;DHT22;9269;50.838;12.094;2023-05-07T06:26:18;16.20;44.80
18287;DHT22;9269;50.838;12.094;2023-05-07T06:28:53;16.30;44.60
18287;DHT22;9269;50.838;12.094;2023-05-07T06:31:29;16.30;44.70
18287;DHT22;9269;50.838;12.094;2023-05-07T06:34:02;16.30;44.50
18287;DHT22;9269;50.838;12.094;2023-05-07T06:36:33;16.40;44.20
18287;DHT22;9269;50.838;12.094;2023-05-07T06:39:05;16.40;44.30
18287;DHT22;9269;50.838;12.094;2023-05-07T06:41:40;16.40;44.20
18287;DHT22;9269;50.838;12.094;2023-05-07T06:44:15;16.40;44.30
18287;DHT22;9269;50.838;12.094;2023-05-07T06:46:48;16.40;44.20
18287;DHT22;9269;50.838;12.094;2023-05-07T06:49:17;16.30;44.40
18287;DHT22;9269;50.838;12.094;2023-05-07T06:51:49;16.30;44.00
18287;DHT22;9269;50.838;12.094;2023-05-07T06:54:25;16.30;44.10
18287;DHT22;9269;50.838;12.094;2023-05-07T06:57:02;16.40;44.30
18287;DHT22;9269;50.838;12.094;2023-05-07T06:59:49;16.50;44.20
18287;DHT22;9269;50.838;12.094;2023-05-07T07:02:33;16.50;44.50
18287;DHT22;9269;50.838;12.094;2023-05-07T07:05:07;16.50;44.20
18287;DHT22;9269;50.838;12.094;2023-05-07T07:07:39;16.40;44.40
18287;DHT22;9269;50.838;12.094;2023-05-07T07:10:18;16.50;44.40
18287;DHT22;9269;50.838;12.094;2023-05-07T07:12:53;16.50;44.40
18287;DHT22;9269;50.838;12.094;2023-05-07T07:15:32;16.60;44.70
18287;DHT22;9269;50.838;12.094;2023-05-07T07:18:07;16.50;44.10
18287;DHT22;9269;50.838;12.094;2023-05-07T07:20:51;16.60;44.00
18287;DHT22;9269;50.838;12.094;2023-05-07T07:23:20;16.60;43.70
18287;DHT22;9269;50.838;12.094;2023-05-07T07:25:54;16.60;44.00
18287;DHT22;9269;50.838;12.094;2023-05-07T07:28:34;16.70;43.60
18287;DHT22;9269;50.838;12.094;2023-05-07T07:31:10;16.80;43.80
18287;DHT22;9269;50.838;12.094;2023-05-07T07:33:52;16.80;43.40
18287;DHT22;9269;50.838;12.094;2023-05-07T07:36:33;16.80;43.00
18287;DHT22;9269;50.838;12.094;2023-05-07T07:39:13;16.90;43.00
18287;DHT22;9269;50.838;12.094;2023-05-07T07:41:51;16.90;43.00
18287;DHT22;9269;50.838;12.094;2023-05-07T07:44:20;17.00;42.50
18287;DHT22;9269;50.838;12.094;2023-05-07T07:46:54;17.00;42.70
18287;DHT22;9269;50.838;12.094;2023-05-07T07:49:26;17.10;42.60
18287;DHT22;9269;50.838;12.094;2023-05-07T07:52:01;17.10;42.10
18287;DHT22;9269;50.838;12.094;2023-05-07T07:54:33;17.10;42.30
18287;DHT22;9269;50.838;12.094;2023-05-07T07:57:05;17.20;42.30
18287;DHT22;9269;50.838;12.094;2023-05-07T07:59:40;17.20;42.00
18287;DHT22;9269;50.838;12.094;2023-05-07T08:02:14;17.20;42.00
18287;DHT22;9269;50.838;12.094;2023-05-07T08:04:48;17.30;42.00
18287;DHT22;9269;50.838;12.094;2023-05-07T08:07:32;17.30;41.90
18287;DHT22;9269;50.838;12.094;2023-05-07T08:10:07;17.20;41.60
18287;DHT22;9269;50.838;12.094;2023-05-07T08:12:55;17.20;41.80
18287;DHT22;9269;50.838;12.094;2023-05-07T08:15:28;17.40;41.70
18287;DHT22;9269;50.838;12.094;2023-05-07T08:18:01;17.30;42.00
18287;DHT22;9269;50.838;12.094;2023-05-07T08:20:35;17.30;41.50
18287;DHT22;9269;50.838;12.094;2023-05-07T08:23:13;17.30;41.50
18287;DHT22;9269;50.838;12.094;2023-05-07T08:25:48;17.30;41.30
18287;DHT22;9269;50.838;12.094;2023-05-07T08:28:26;17.20;41.30
18287;DHT22;9269;50.838;12.094;2023-05-07T08:31:03;17.20;41.60
18287;DHT22;9269;50.838;12.094;2023-05-07T08:33:39;17.30;41.30
18287;DHT22;9269;50.838;12.094;2023-05-07T08:36:11;17.40;41.10
18287;DHT22;9269;50.838;12.094;2023-05-07T08:38:54;17.30;41.20
18287;DHT22;9269;50.838;12.094;2023-05-07T08:41:40;17.30;41.10
18287;DHT22;9269;50.838;12.094;2023-05-07T08:44:16;17.20;41.40
18287;DHT22;9269;50.838;12.094;2023-05-07T08:46:52;17.20;41.20
18287;DHT22;9269;50.838;12.094;2023-05-07T08:49:33;17.20;41.00
18287;DHT22;9269;50.838;12.094;2023-05-07T08:52:13;17.20;41.10
18287;DHT22;9269;50.838;12.094;2023-05-07T08:54:47;17.20;41.20
18287;DHT22;9269;50.838;12.094;2023-05-07T08:57:20;17.30;41.20
18287;DHT22;9269;50.838;12.094;2023-05-07T09:00:01;17.30;41.10
18287;DHT22;9269;50.838;12.094;2023-05-07T09:02:34;17.30;41.50
18287;DHT22;9269;50.838;12.094;2023-05-07T09:05:17;17.30;41.20
18287;DHT22;9269;50.838;12.094;2023-05-07T09:07:51;17.30;41.00
18287;DHT22;9269;50.838;12.094;2023-05-07T09:10:29;17.30;41.20
18287;DHT22;9269;50.838;12.094;2023-05-07T09:13:06;17.30;41.20
18287;DHT22;9269;50.838;12.094;2023-05-07T09:15:40;17.40;40.80
18287;DHT22;9269;50.838;12.094;2023-05-07T09:18:10;17.40;41.20
18287;DHT22;9269;50.838;12.094;2023-05-07T09:20:44;17.40;41.10
18287;DHT22;9269;50.838;12.094;2023-05-07T09:23:16;17.50;40.90
18287;DHT22;9269;50.838;12.094;2023-05-07T09:25:47;17.40;40.90
18287;DHT22;9269;50.838;12.094;2023-05-07T09:28:24;17.50;40.80
18287;DHT22;9269;50.838;12.094;2023-05-07T09:31:03;17.50;40.80
18287;DHT22;9269;50.838;12.094;2023-05-07T09:33:36;17.50;40.40
18287;DHT22;9269;50.838;12.094;2023-05-07T09:36:12;17.60;40.50
18287;DHT22;9269;50.838;12.094;2023-05-07T09:38:50;17.70;40.40
18287;DHT22;9269;50.838;12.094;2023-05-07T09:41:22;17.70;40.30
18287;DHT22;9269;50.838;12.094;2023-05-07T09:44:04;17.70;40.10
18287;DHT22;9269;50.838;12.094;2023-05-07T09:46:53;17.60;40.40
18287;DHT22;9269;50.838;12.094;2023-05-07T09:49:28;17.70;40.20
18287;DHT22;9269;50.838;12.094;2023-05-07T09:52:04;17.80;40.00
18287;DHT22;9269;50.838;12.094;2023-05-07T09:54:48;17.70;40.10
18287;DHT22;9269;50.838;12.094;2023-05-07T09:57:27;17.70;40.20
18287;DHT22;9269;50.838;12.094;2023-05-07T09:59:58;17.80;39.90
18287;DHT22;9269;50.838;12.094;2023-05-07T10:02:30;17.90;40.10
18287;DHT22;9269;50.838;12.094;2023-05-07T10:05:09;18.00;39.70
18287;DHT22;9269;50.838;12.094;2023-05-07T10:07:42;18.00;39.40
18287;DHT22;9269;50.838;12.094;2023-05-07T10:10:15;18.00;39.50
18287;DHT22;9269;50.838;12.094;2023-05-07T10:12:46;18.10;39.30
18287;DHT22;9269;50.838;12.094;2023-05-07T10:15:21;18.10;39.30
18287;DHT22;9269;50.838;12.094;2023-05-07T10:17:53;18.20;37.70
18287;DHT22;9269;50.838;12.094;2023-05-07T10:20:34;18.20;37.80
18287;DHT22;9269;50.838;12.094;2023-05-07T10:23:19;18.30;38.00
18287;DHT22;9269;50.838;12.094;2023-05-07T10:25:54;18.40;37.70
18287;DHT22;9269;50.838;12.094;2023-05-07T10:28:41;18.40;37.10
18287;DHT22;9269;50.838;12.094;2023-05-07T10:31:44;18.40;37.30
18287;DHT22;9269;50.838;12.094;2023-05-07T10:34:35;18.50;37.40
18287;DHT22;9269;50.838;12.094;2023-05-07T10:37:08;18.50;37.40
18287;DHT22;9269;50.838;12.094;2023-05-07T10:39:43;18.60;37.40
18287;DHT22;9269;50.838;12.094;2023-05-07T10:42:28;18.70;36.90
18287;DHT22;9269;50.838;12.094;2023-05-07T10:45:12;18.80;36.50
18287;DHT22;9269;50.838;12.094;2023-05-07T10:48:08;18.90;36.20
18287;DHT22;9269;50.838;12.094;2023-05-07T10:51:21;18.90;36.00
18287;DHT22;9269;50.838;12.094;2023-05-07T10:54:23;18.90;36.00
18287;DHT22;9269;50.838;12.094;2023-05-07T10:57:35;18.90;36.50
18287;DHT22;9269;50.838;12.094;2023-05-07T11:00:40;18.90;36.30
18287;DHT22;9269;50.838;12.094;2023-05-07T11:03:22;18.90;36.50
18287;DHT22;9269;50.838;12.094;2023-05-07T11:06:10;18.80;36.30
18287;DHT22;9269;50.838;12.094;2023-05-07T11:08:52;18.90;36.60
18287;DHT22;9269;50.838;12.094;2023-05-07T11:11:46;19.00;36.50
18287;DHT22;9269;50.838;12.094;2023-05-07T11:14:44;19.00;36.30
18287;DHT22;9269;50.838;12.094;2023-05-07T11:17:18;19.00;35.90
18287;DHT22;9269;50.838;12.094;2023-05-07T11:19:53;19.00;35.90
18287;DHT22;9269;50.838;12.094;2023-05-07T11:22:37;19.10;35.70
18287;DHT22;9269;50.838;12.094;2023-05-07T11:25:09;19.10;35.60
18287;DHT22;9269;50.838;12.094;2023-05-07T11:27:55;19.20;35.80
18287;DHT22;9269;50.838;12.094;2023-05-07T11:30:37;19.10;35.60
18287;DHT22;9269;50.838;12.094;2023-05-07T11:33:17;19.10;36.00
18287;DHT22;9269;50.838;12.094;2023-05-07T11:35:56;19.10;35.10
18287;DHT22;9269;50.838;12.094;2023-05-07T11:38:29;19.10;35.70
18287;DHT22;9269;50.838;12.094;2023-05-07T11:41:08;19.20;35.60
18287;DHT22;9269;50.838;12.094;2023-05-07T11:43:56;19.20;36.10
18287;DHT22;9269;50.838;12.094;2023-05-07T11:46:30;19.20;36.00
18287;DHT22;9269;50.838;12.094;2023-05-07T11:49:18;19.20;35.70
18287;DHT22;9269;50.838;12.094;2023-05-07T11:52:06;19.30;35.60
18287;DHT22;9269;50.838;12.094;2023-05-07T11:54:49;19.20;35.70
18287;DHT22;9269;50.838;12.094;2023-05-07T11:57:22;19.30;35.50
18287;DHT22;9269;50.838;12.094;2023-05-07T12:00:00;19.30;35.20
18287;DHT22;9269;50.838;12.094;2023-05-07T12:02:38;19.30;34.80
18287;DHT22;9269;50.838;12.094;2023-05-07T12:05:15;19.30;34.90
18287;DHT22;9269;50.838;12.094;2023-05-07T12:07:59;19.40;35.50
18287;DHT22;9269;50.838;12.094;2023-05-07T12:10:48;19.40;35.50
18287;DHT22;9269;50.838;12.094;2023-05-07T12:13:27;19.50;34.90
18287;DHT22;9269;50.838;12.094;2023-05-07T12:16:12;19.50;34.70
18287;DHT22;9269;50.838;12.094;2023-05-07T12:18:50;19.50;34.80
18287;DHT22;9269;50.838;12.094;2023-05-07T12:21:39;19.60;34.40
18287;DHT22;9269;50.838;12.094;2023-05-07T12:24:19;19.50;34.60
18287;DHT22;9269;50.838;12.094;2023-05-07T12:26:51;19.50;34.60
18287;DHT22;9269;50.838;12.094;2023-05-07T12:29:26;19.40;34.40
18287;DHT22;9269;50.838;12.094;2023-05-07T12:32:13;19.50;34.40
18287;DHT22;9269;50.838;12.094;2023-05-07T12:34:53;19.50;34.80
18287;DHT22;9269;50.838;12.094;2023-05-07T12:37:32;19.50;34.70
18287;DHT22;9269;50.838;12.094;2023-05-07T12:40:10;19.50;33.90
18287;DHT22;9269;50.838;12.094;2023-05-07T12:42:45;19.40;34.70
18287;DHT22;9269;50.838;12.094;2023-05-07T12:45:26;19.40;34.30
18287;DHT22;9269;50.838;12.094;2023-05-07T12:48:01;19.30;34.20
18287;DHT22;9269;50.838;12.094;2023-05-07T12:50:40;19.20;33.80
18287;DHT22;9269;50.838;12.094;2023-05-07T12:53:20;19.30;33.70
18287;DHT22;9269;50.838;12.094;2023-05-07T12:56:00;19.30;33.70
18287;DHT22;9269;50.838;12.094;2023-05-07T12:58:35;19.30;34.00
18287;DHT22;9269;50.838;12.094;2023-05-07T13:01:17;19.40;34.10
18287;DHT22;9269;50.838;12.094;2023-05-07T13:04:05;19.50;34.10
18287;DHT22;9269;50.838;12.094;2023-05-07T13:06:44;19.60;34.30
18287;DHT22;9269;50.838;12.094;2023-05-07T13:09:18;19.70;33.70
18287;DHT22;9269;50.838;12.094;2023-05-07T13:11:54;19.80;34.10
18287;DHT22;9269;50.838;12.094;2023-05-07T13:14:42;19.70;34.10
18287;DHT22;9269;50.838;12.094;2023-05-07T13:17:19;19.80;34.00
18287;DHT22;9269;50.838;12.094;2023-05-07T13:19:58;19.90;34.10
18287;DHT22;9269;50.838;12.094;2023-05-07T13:22:35;20.00;33.70
18287;DHT22;9269;50.838;12.094;2023-05-07T13:25:23;20.10;33.80
18287;DHT22;9269;50.838;12.094;2023-05-07T13:28:02;20.20;33.60
18287;DHT22;9269;50.838;12.094;2023-05-07T13:30:53;20.30;33.40
18287;DHT22;9269;50.838;12.094;2023-05-07T13:33:24;20.50;33.20
18287;DHT22;9269;50.838;12.094;2023-05-07T13:36:01;20.50;33.10
18287;DHT22;9269;50.838;12.094;2023-05-07T13:38:52;20.60;32.60
18287;DHT22;9269;50.838;12.094;2023-05-07T13:41:26;20.60;32.60
18287;DHT22;9269;50.838;12.094;2023-05-07T13:44:07;20.70;32.60
18287;DHT22;9269;50.838;12.094;2023-05-07T13:46:52;20.70;32.20
18287;DHT22;9269;50.838;12.094;2023-05-07T13:49:33;20.70;32.30
18287;DHT22;9269;50.838;12.094;2023-05-07T13:52:27;20.80;32.40
18287;DHT22;9269;50.838;12.094;2023-05-07T13:55:17;20.80;32.90
18287;DHT22;9269;50.838;12.094;2023-05-07T13:57:54;20.90;32.20
18287;DHT22;9269;50.838;12.094;2023-05-07T14:00:34;20.80;32.30
18287;DHT22;9269;50.838;12.094;2023-05-07T14:03:19;20.90;30.70
18287;DHT22;9269;50.838;12.094;2023-05-07T14:06:05;20.90;31.00
18287;DHT22;9269;50.838;12.094;2023-05-07T14:08:53;20.90;32.40
18287;DHT22;9269;50.838;12.094;2023-05-07T14:11:33;20.90;30.80
18287;DHT22;9269;50.838;12.094;2023-05-07T14:14:16;20.90;31.70
18287;DHT22;9269;50.838;12.094;2023-05-07T14:16:55;20.90;30.60
18287;DHT22;9269;50.838;12.094;2023-05-07T14:19:28;20.90;32.00
18287;DHT22;9269;50.838;12.094;2023-05-07T14:22:08;20.80;32.20
18287;DHT22;9269;50.838;12.094;2023-05-07T14:24:56;20.90;32.20
18287;DHT22;9269;50.838;12.094;2023-05-07T14:27:49;20.90;30.70
18287;DHT22;9269;50.838;12.094;2023-05-07T14:30:24;21.00;30.00
18287;DHT22;9269;50.838;12.094;2023-05-07T14:32:56;21.10;30.00
18287;DHT22;9269;50.838;12.094;2023-05-07T14:35:26;21.00;30.70
18287;DHT22;9269;50.838;12.094;2023-05-07T14:37:57;21.10;30.20
18287;DHT22;9269;50.838;12.094;2023-05-07T14:40:37;21.10;30.10
18287;DHT22;9269;50.838;12.094;2023-05-07T14:43:16;21.00;30.40
18287;DHT22;9269;50.838;12.094;2023-05-07T14:45:56;21.00;30.30
18287;DHT22;9269;50.838;12.094;2023-05-07T14:48:40;21.10;30.70
18287;DHT22;9269;50.838;12.094;2023-05-07T14:51:28;21.00;30.90
18287;DHT22;9269;50.838;12.094;2023-05-07T14:54:03;21.10;30.50
18287;DHT22;9269;50.838;12.094;2023-05-07T14:56:49;21.00;30.70
18287;DHT22;9269;50.838;12.094;2023-05-07T14:59:39;21.00;30.40
18287;DHT22;9269;50.838;12.094;2023-05-07T15:02:18;20.90;30.40
18287;DHT22;9269;50.838;12.094;2023-05-07T15:04:59;20.70;31.30
18287;DHT22;9269;50.838;12.094;2023-05-07T15:07:33;20.90;30.30
18287;DHT22;9269;50.838;12.094;2023-05-07T15:10:17;20.90;30.40
18287;DHT22;9269;50.838;12.094;2023-05-07T15:13:06;20.90;30.30
18287;DHT22;9269;50.838;12.094;2023-05-07T15:15:47;21.00;30.10
18287;DHT22;9269;50.838;12.094;2023-05-07T15:18:23;20.90;30.00
18287;DHT22;9269;50.838;12.094;2023-05-07T15:21:08;20.90;31.60
18287;DHT22;9269;50.838;12.094;2023-05-07T15:23:49;20.70;31.40
18287;DHT22;9269;50.838;12.094;2023-05-07T15:26:23;20.80;31.50
18287;DHT22;9269;50.838;12.094;2023-05-07T15:29:01;20.70;31.50
18287;DHT22;9269;50.838;12.094;2023-05-07T15:31:50;20.60;31.60
18287;DHT22;9269;50.838;12.094;2023-05-07T15:34:23;20.60;31.90
18287;DHT22;9269;50.838;12.094;2023-05-07T15:37:08;20.50;31.30
18287;DHT22;9269;50.838;12.094;2023-05-07T15:39:49;20.40;31.90
18287;DHT22;9269;50.838;12.094;2023-05-07T15:42:23;20.40;32.00
18287;DHT22;9269;50.838;12.094;2023-05-07T15:45:06;20.50;31.90
18287;DHT22;9269;50.838;12.094;2023-05-07T15:47:43;20.50;31.80
18287;DHT22;9269;50.838;12.094;2023-05-07T15:50:28;20.50;31.60
18287;DHT22;9269;50.838;12.094;2023-05-07T15:53:03;20.50;31.00
18287;DHT22;9269;50.838;12.094;2023-05-07T15:55:43;20.40;31.40
18287;DHT22;9269;50.838;12.094;2023-05-07T15:58:19;20.40;31.40
18287;DHT22;9269;50.838;12.094;2023-05-07T16:01:02;20.40;31.70
18287;DHT22;9269;50.838;12.094;2023-05-07T16:03:38;20.40;31.70
18287;DHT22;9269;50.838;12.094;2023-05-07T16:06:10;20.40;31.50
18287;DHT22;9269;50.838;12.094;2023-05-07T16:08:43;20.30;31.30
18287;DHT22;9269;50.838;12.094;2023-05-07T16:11:21;20.20;31.70
18287;DHT22;9269;50.838;12.094;2023-05-07T16:13:58;20.20;31.50
18287;DHT22;9269;50.838;12.094;2023-05-07T16:16:35;20.10;32.00
18287;DHT22;9269;50.838;12.094;2023-05-07T16:19:12;20.00;32.00
18287;DHT22;9269;50.838;12.094;2023-05-07T16:21:53;20.10;32.10
18287;DHT22;9269;50.838;12.094;2023-05-07T16:24:35;20.00;32.30
18287;DHT22;9269;50.838;12.094;2023-05-07T16:27:15;20.00;32.70
18287;DHT22;9269;50.838;12.094;2023-05-07T16:29:43;20.10;32.90
18287;DHT22;9269;50.838;12.094;2023-05-07T16:32:12;20.10;32.90